Time;durP1;ratioP1;P1;durP2;ratioP2;P2;SDS_P1;SDS_P2;PMS_P1;PMS_P2;Temp;Humidity;BMP_temperature;BMP_pressure;BME280_temperature;BME280_humidity;BME280_pressure;Samples;Min_cycle;Max_cycle;Signal;HPM_P1;HPM_P2
2023/04/05 00:02:58;;;;;;;7.95;4.68;;;;;;;3.91;38.61;100104.78;7655958;32;37215;-80
2023/04/05 00:07:16;;;;;;;9.43;4.87;;;;;;;3.89;37.15;100106.06;7630520;32;39030;-80
2023/04/05 00:11:33;;;;;;;7.47;4.93;;;;;;;3.68;37.73;100108.09;7630178;32;40775;-80
2023/04/05 00:15:49;;;;;;;10.00;4.93;;;;;;;3.85;37.71;100107.56;7650864;32;37497;-79
2023/04/05 00:20:06;;;;;;;9.25;5.25;;;;;;;3.83;37.74;100102.38;7657584;32;37262;-80
2023/04/05 00:24:23;;;;;;;10.88;6.12;;;;;;;3.82;38.40;100110.69;7653130;32;39862;-79
2023/04/05 00:28:39;;;;;;;10.38;5.62;;;;;;;3.64;39.38;100097.94;7631972;32;39627;-80
2023/04/05 00:32:55;;;;;;;9.60;6.55;;;;;;;3.63;39.66;100093.63;7631234;32;38742;-80
2023/04/05 00:37:12;;;;;;;9.48;5.97;;;;;;;3.60;40.04;100092.16;7631057;32;38025;-79
2023/04/05 00:41:28;;;;;;;13.82;6.10;;;;;;;3.55;40.64;100094.69;7630914;32;40071;-80
2023/04/05 00:45:44;;;;;;;10.77;6.20;;;;;;;3.65;40.24;100099.62;7649247;32;40870;-80
2023/04/05 00:50:01;;;;;;;13.38;6.82;;;;;;;3.52;40.26;100100.56;7655685;32;37580;-80
2023/04/05 00:54:18;;;;;;;15.68;7.07;;;;;;;3.66;40.07;100094.00;7647981;32;37185;-80
2023/04/05 00:58:34;;;;;;;10.60;6.45;;;;;;;3.61;40.21;100093.03;7655667;32;39442;-80
2023/04/05 01:03:00;;;;;;;10.75;6.60;;;;;;;3.46;40.28;100098.72;7657002;32;40853;-80
2023/04/05 01:07:29;;;;;;;12.48;6.70;;;;;;;3.61;40.27;100087.63;7633730;32;37940;-80
2023/04/05 01:11:46;;;;;;;15.35;6.47;;;;;;;3.63;40.61;100089.03;7632285;32;37975;-80
2023/04/05 01:16:03;;;;;;;12.73;7.65;;;;;;;3.62;40.68;100087.38;7652082;32;39464;-80
2023/04/05 01:20:21;;;;;;;10.43;6.97;;;;;;;3.51;40.21;100088.09;7660056;32;40933;-80
2023/04/05 01:24:51;;;;;;;12.98;7.30;;;;;;;3.43;40.50;100091.06;7648425;32;36917;-80
2023/04/05 01:29:32;;;;;;;13.45;7.25;;;;;;;3.44;40.18;100087.31;7648750;32;37913;-79
2023/04/05 01:34:12;;;;;;;12.88;7.18;;;;;;;3.29;40.57;100085.72;7653790;32;40119;-80
2023/04/05 01:38:29;;;;;;;12.00;7.97;;;;;;;3.28;41.04;100092.19;7633444;32;40818;-80
2023/04/05 01:42:45;;;;;;;11.85;7.45;;;;;;;3.39;41.05;100085.28;7632092;32;38692;-80
2023/04/05 01:47:01;;;;;;;12.50;7.18;;;;;;;3.14;41.68;100087.91;7648817;32;37378;-80
2023/04/05 01:51:19;;;;;;;14.82;7.70;;;;;;;3.09;42.05;100091.25;7633956;32;40072;-80
2023/04/05 01:55:35;;;;;;;11.15;7.05;;;;;;;3.13;42.34;100097.84;7634033;32;40623;-80
2023/04/05 01:59:51;;;;;;;13.45;7.65;;;;;;;3.16;42.12;100089.34;7657128;32;37120;-80
2023/04/05 02:04:07;;;;;;;12.90;8.57;;;;;;;3.00;42.94;100095.22;7652119;32;38135;-80
2023/04/05 02:08:24;;;;;;;14.05;8.10;;;;;;;2.88;43.85;100086.16;7632975;32;39273;-80
2023/04/05 02:12:40;;;;;;;15.40;8.85;;;;;;;2.95;43.72;100082.41;7633081;32;40017;-80
2023/04/05 02:16:56;;;;;;;19.02;8.77;;;;;;;2.72;44.41;100082.09;7644016;32;37809;-80
2023/04/05 02:21:16;;;;;;;13.77;8.50;;;;;;;2.65;44.64;100078.59;7632884;32;37973;-80
2023/04/05 02:25:32;;;;;;;17.25;8.48;;;;;;;2.68;44.74;100078.19;7634537;32;39256;-80
2023/04/05 02:29:48;;;;;;;15.40;8.60;;;;;;;2.73;44.67;100087.25;7659050;32;40191;-80
2023/04/05 02:34:08;;;;;;;15.48;8.88;;;;;;;2.61;44.96;100089.78;7651340;32;38663;-80
2023/04/05 02:38:24;;;;;;;14.73;9.30;;;;;;;2.67;44.70;100079.22;7632754;32;37111;-80
2023/04/05 02:42:41;;;;;;;15.30;9.57;;;;;;;2.48;45.45;100084.44;7640062;32;39441;-80
2023/04/05 02:46:57;;;;;;;17.05;9.80;;;;;;;2.39;45.54;100083.03;7635787;32;40699;-80
2023/04/05 02:51:13;;;;;;;16.35;9.88;;;;;;;2.48;45.38;100079.06;7658737;32;37996;-80
2023/04/05 02:55:29;;;;;;;16.50;10.32;;;;;;;2.40;45.62;100073.94;7643913;32;37783;-81
2023/04/05 02:59:46;;;;;;;14.52;9.88;;;;;;;2.19;46.14;100081.22;7632443;32;39326;-80
2023/04/05 03:04:02;;;;;;;17.77;9.63;;;;;;;2.23;45.76;100077.06;7637517;32;40009;-80
2023/04/05 03:08:22;;;;;;;22.10;10.77;;;;;;;2.15;46.14;100076.44;7658409;32;38554;-80
2023/04/05 03:12:38;;;;;;;20.15;10.77;;;;;;;2.40;45.24;100072.06;7658624;32;37307;-80
2023/04/05 03:16:55;;;;;;;18.40;10.32;;;;;;;2.01;46.27;100075.66;7657704;32;39871;-80
2023/04/05 03:21:11;;;;;;;21.30;10.52;;;;;;;2.15;46.05;100077.28;7658420;32;40074;-81
2023/04/05 03:25:28;;;;;;;21.50;9.82;;;;;;;2.11;46.05;100075.22;7641079;32;37922;-80
2023/04/05 03:29:44;;;;;;;22.08;11.52;;;;;;;2.28;45.02;100083.66;7632077;32;37336;-80
2023/04/05 03:34:00;;;;;;;21.27;11.07;;;;;;;2.10;45.75;100076.25;7639091;32;39484;-80
2023/04/05 03:38:17;;;;;;;20.10;10.93;;;;;;;2.06;45.82;100075.84;7658172;32;40861;-81
2023/04/05 03:42:33;;;;;;;23.05;11.55;;;;;;;1.98;46.08;100084.94;7658138;32;37721;-80
2023/04/05 03:46:49;;;;;;;23.65;11.38;;;;;;;1.96;46.03;100087.00;7654144;32;37299;-80
2023/04/05 03:51:06;;;;;;;17.50;10.70;;;;;;;1.98;46.00;100086.81;7658076;32;40141;-80
2023/04/05 03:55:23;;;;;;;17.33;10.23;;;;;;;1.90;46.15;100093.25;7650531;32;39615;-80
2023/04/05 03:59:39;;;;;;;16.23;11.20;;;;;;;1.68;46.33;100090.75;7657901;32;38605;-80
2023/04/05 04:03:55;;;;;;;18.70;10.57;;;;;;;1.80;46.32;100103.59;7651189;32;37315;-80
2023/04/05 04:08:12;;;;;;;18.23;10.63;;;;;;;1.68;46.52;100101.50;7631363;32;40260;-80
2023/04/05 04:12:28;;;;;;;19.35;10.82;;;;;;;1.82;46.32;100107.69;7631475;32;40029;-80
2023/04/05 04:16:44;;;;;;;17.17;10.55;;;;;;;1.58;46.70;100105.63;7631240;32;38833;-79
2023/04/05 04:21:07;;;;;;;20.42;10.50;;;;;;;1.28;47.52;100103.31;7631360;32;37775;-80
2023/04/05 04:25:25;;;;;;;17.60;10.27;;;;;;;1.47;47.14;100107.06;7631383;32;39088;-80
2023/04/05 04:29:45;;;;;;;17.50;10.02;;;;;;;1.34;47.44;100109.72;7631179;32;39017;-80
2023/04/05 04:34:03;;;;;;;19.30;10.23;;;;;;;1.23;47.65;100103.09;7639891;32;37991;-80
2023/04/05 04:38:19;;;;;;;17.75;9.68;;;;;;;1.55;46.42;100109.53;7661011;32;37173;-80
2023/04/05 04:42:37;;;;;;;15.80;9.95;;;;;;;1.39;46.84;100108.06;7665934;32;39409;-79
2023/04/05 04:46:54;;;;;;;18.42;10.98;;;;;;;1.38;47.24;100117.19;7639299;32;39028;-80
2023/04/05 04:51:10;;;;;;;21.15;10.65;;;;;;;1.60;46.53;100122.37;7640258;32;37809;-79
2023/04/05 04:55:29;;;;;;;17.15;10.73;;;;;;;1.45;46.87;100107.25;7636910;32;37176;-80
2023/04/05 04:59:45;;;;;;;19.85;9.63;;;;;;;1.44;47.03;100120.91;7639359;32;39342;-80
2023/04/05 05:04:03;;;;;;;22.05;9.88;;;;;;;1.72;46.49;100118.03;7647099;32;39999;-79
2023/04/05 05:08:19;;;;;;;17.27;10.55;;;;;;;1.78;46.06;100121.78;7665032;32;38644;-81
2023/04/05 05:12:37;;;;;;;16.80;10.32;;;;;;;1.65;46.51;100118.03;7648820;32;37238;-81
2023/04/05 05:16:57;;;;;;;20.05;10.70;;;;;;;1.69;46.52;100121.13;7638710;32;39346;-80
2023/04/05 05:21:14;;;;;;;15.13;9.52;;;;;;;1.85;45.90;100117.22;7620673;32;39999;-72
2023/04/05 05:25:30;;;;;;;18.65;10.90;;;;;;;1.98;48.84;100119.06;7652836;32;38050;-80
2023/04/05 05:29:47;;;;;;;19.42;11.30;;;;;;;1.96;47.25;100124.66;7664732;32;36890;-79
2023/04/05 05:34:03;;;;;;;24.25;11.15;;;;;;;2.15;49.87;100128.37;7653141;32;39803;-79
2023/04/05 05:38:19;;;;;;;16.90;10.82;;;;;;;2.16;45.65;100121.97;7638132;32;40821;-79
2023/04/05 05:42:36;;;;;;;19.62;11.55;;;;;;;2.33;44.51;100125.06;7639489;32;38047;-80
2023/04/05 05:46:52;;;;;;;19.27;10.68;;;;;;;2.23;44.16;100124.66;7650941;32;37193;-80
2023/04/05 05:51:11;;;;;;;26.80;12.48;;;;;;;2.04;44.33;100126.34;7660331;32;40163;-81
2023/04/05 05:55:27;;;;;;;25.65;12.15;;;;;;;2.16;44.51;100132.72;7653723;32;40097;-81
2023/04/05 05:59:43;;;;;;;21.50;12.20;;;;;;;2.33;44.15;100129.59;7606994;32;38039;-80
2023/04/05 06:04:00;;;;;;;21.25;12.57;;;;;;;2.18;44.60;100133.34;7620189;32;37920;-80
2023/04/05 06:08:16;;;;;;;22.95;13.32;;;;;;;2.06;45.46;100143.09;7657080;32;39409;-80
2023/04/05 06:12:32;;;;;;;25.30;12.60;;;;;;;2.35;43.69;100132.94;7655167;32;40004;-81
2023/04/05 06:16:49;;;;;;;20.45;11.00;;;;;;;2.50;43.73;100138.91;7658167;32;39828;-81
2023/04/05 06:21:05;;;;;;;22.27;11.77;;;;;;;2.61;43.28;100135.56;7650826;32;37490;-81
2023/04/05 06:25:21;;;;;;;16.85;10.68;;;;;;;2.58;43.28;100138.66;7624478;32;40212;-80
2023/04/05 06:29:38;;;;;;;23.25;11.18;;;;;;;2.91;42.25;100139.59;7615009;32;40844;-80
2023/04/05 06:33:54;;;;;;;18.45;10.98;;;;;;;2.86;41.90;100140.22;7617813;32;38711;-80
2023/04/05 06:38:10;;;;;;;20.98;10.75;;;;;;;3.14;41.96;100131.84;7616403;32;38021;-79
2023/04/05 06:42:26;;;;;;;20.40;10.65;;;;;;;2.96;41.75;100132.53;7617553;32;39302;-78
2023/04/05 06:46:43;;;;;;;18.70;10.80;;;;;;;2.75;41.71;100140.91;7605114;32;40517;-79
2023/04/05 06:51:01;;;;;;;22.92;10.70;;;;;;;3.23;41.27;100143.19;7613744;32;37629;-79
2023/04/05 06:55:17;;;;;;;18.15;10.27;;;;;;;3.43;40.72;100140.38;7604245;32;38259;-79
2023/04/05 06:59:33;;;;;;;19.37;10.48;;;;;;;3.57;40.74;100135.78;7615325;32;39333;-79
2023/04/05 07:03:50;;;;;;;14.07;9.73;;;;;;;3.87;40.36;100135.13;7605019;32;39961;-79
2023/04/05 07:08:06;;;;;;;17.90;10.65;;;;;;;4.08;39.35;100136.63;7620766;32;37949;-79
2023/04/05 07:12:22;;;;;;;18.75;9.98;;;;;;;3.88;39.66;100131.38;7595961;32;36824;-83
2023/04/05 07:16:39;;;;;;;18.52;10.52;;;;;;;4.00;39.73;100132.34;7636219;32;39110;-79
2023/04/05 07:21:00;;;;;;;16.15;9.15;;;;;;;4.59;38.83;100129.28;7658421;32;40219;-78
2023/04/05 07:25:19;;;;;;;15.90;9.20;;;;;;;4.67;37.94;100120.88;7651626;32;37663;-79
2023/04/05 07:29:39;;;;;;;12.32;7.10;;;;;;;4.51;38.66;100130.41;7638375;32;36947;-80
2023/04/05 07:34:00;;;;;;;15.55;9.57;;;;;;;5.33;36.15;100121.13;7658450;32;40118;-83
2023/04/05 07:38:16;;;;;;;15.23;8.60;;;;;;;5.35;36.06;100121.72;7644249;32;38988;-83
2023/04/05 07:42:32;;;;;;;17.10;9.30;;;;;;;4.88;36.79;100120.44;7631843;32;38633;-82
2023/04/05 07:46:48;;;;;;;15.82;8.60;;;;;;;4.30;37.74;100123.56;7647263;32;38166;-82
2023/04/05 07:51:07;;;;;;;14.32;8.05;;;;;;;4.89;37.28;100124.78;7658146;32;39871;-82
2023/04/05 07:55:23;;;;;;;15.63;8.20;;;;;;;5.10;36.79;100119.16;7651293;32;39186;-82
2023/04/05 07:59:39;;;;;;;14.93;7.70;;;;;;;5.34;35.41;100110.06;7631450;32;37940;-82
2023/04/05 08:03:56;;;;;;;12.52;7.50;;;;;;;4.90;35.88;100120.22;7631800;32;37309;-81
2023/04/05 08:08:12;;;;;;;11.40;6.97;;;;;;;5.13;36.52;100116.81;7655011;32;39516;-82
2023/04/05 08:12:30;;;;;;;11.25;6.55;;;;;;;5.10;34.81;100111.84;7637812;32;40792;-83
2023/04/05 08:16:50;;;;;;;10.90;6.50;;;;;;;5.49;35.14;100112.38;7627931;32;37667;-82
2023/04/05 08:21:06;;;;;;;11.52;6.28;;;;;;;5.37;34.14;100103.41;7637712;32;37210;-87
2023/04/05 08:25:23;;;;;;;11.80;6.75;;;;;;;5.63;33.66;100100.28;7626349;32;39813;-82
2023/04/05 08:29:39;;;;;;;9.10;5.93;;;;;;;4.99;34.42;100112.63;7640045;32;40936;-83
2023/04/05 08:33:55;;;;;;;11.50;6.90;;;;;;;5.43;34.70;100106.00;7617321;32;38657;-82
2023/04/05 08:38:11;;;;;;;11.00;6.87;;;;;;;4.37;36.41;100113.53;7616977;32;37852;-83
2023/04/05 08:42:56;;;;;;;13.02;7.12;;;;;;;5.01;35.79;100105.13;7613398;32;38756;-83
2023/04/05 08:47:17;;;;;;;12.27;6.12;;;;;;;5.34;33.96;100106.56;7613139;32;40845;-82
2023/04/05 08:51:38;;;;;;;9.52;6.03;;;;;;;5.80;32.98;100096.94;7612725;32;38743;-85
2023/04/05 08:55:59;;;;;;;12.85;6.30;;;;;;;6.19;33.23;100095.47;7618117;32;37764;-85
2023/04/05 09:00:17;;;;;;;10.02;5.25;;;;;;;6.19;33.26;100081.09;7614805;32;39470;-82
2023/04/05 09:04:43;;;;;;;7.60;4.85;;;;;;;6.26;31.60;100081.81;7600601;32;40493;-82
2023/04/05 09:09:00;;;;;;;8.80;5.55;;;;;;;5.65;33.50;100076.53;7646274;32;38700;-82
2023/04/05 09:13:16;;;;;;;10.27;6.03;;;;;;;5.78;34.25;100069.28;7651563;32;38222;-82
2023/04/05 09:17:33;;;;;;;9.18;5.70;;;;;;;6.20;31.37;100066.50;7648460;32;39516;-82
2023/04/05 09:22:00;;;;;;;12.00;5.87;;;;;;;5.80;33.01;100061.75;7654985;32;40855;-81
2023/04/05 09:26:23;;;;;;;7.53;4.80;;;;;;;6.67;33.37;100055.59;7647965;32;38092;-82
2023/04/05 09:30:44;;;;;;;9.10;5.45;;;;;;;6.49;29.66;100063.87;7633266;32;36769;-81
2023/04/05 09:35:02;;;;;;;7.43;5.15;;;;;;;6.35;31.32;100063.31;7636736;32;39151;-80
2023/04/05 09:39:26;;;;;;;10.98;5.72;;;;;;;6.45;32.37;100057.28;7633412;32;38984;-82
2023/04/05 09:43:44;;;;;;;9.60;5.70;;;;;;;6.75;31.71;100047.09;7627864;32;39043;-82
2023/04/05 09:48:01;;;;;;;8.25;5.22;;;;;;;7.37;31.77;100050.97;7614590;32;37643;-81
2023/04/05 09:52:32;;;;;;;11.68;5.55;;;;;;;7.32;30.20;100045.44;7607336;32;38736;-81
2023/04/05 09:56:56;;;;;;;9.07;5.32;;;;;;;7.62;30.08;100044.31;7607639;32;39938;-81
2023/04/05 10:01:13;;;;;;;10.75;5.80;;;;;;;7.17;31.11;100053.31;7632883;32;37996;-82
2023/04/05 10:05:34;;;;;;;11.50;5.90;;;;;;;7.14;30.78;100047.31;7617894;32;37914;-82
2023/04/05 10:09:50;;;;;;;10.52;5.93;;;;;;;7.10;30.77;100040.72;7630915;32;39237;-82
2023/04/05 10:14:09;;;;;;;10.73;5.97;;;;;;;7.87;28.38;100036.59;7632014;32;39984;-82
2023/04/05 10:18:38;;;;;;;8.77;5.60;;;;;;;7.55;29.25;100032.81;7632286;32;37951;-82
2023/04/05 10:23:12;;;;;;;8.38;5.10;;;;;;;7.45;29.56;100028.88;7621074;32;37845;-82
2023/04/05 10:27:38;;;;;;;9.65;5.78;;;;;;;7.57;29.92;100025.25;7620019;32;40175;-81
2023/04/05 10:32:10;;;;;;;12.20;5.37;;;;;;;8.19;28.42;100013.44;7632829;32;40810;-82
2023/04/05 10:36:49;;;;;;;9.07;5.60;;;;;;;8.84;26.96;100017.25;7631833;32;38007;-82
2023/04/05 10:41:14;;;;;;;10.50;5.70;;;;;;;8.94;26.56;100005.69;7632771;32;37038;-82
2023/04/05 10:45:31;;;;;;;10.35;5.37;;;;;;;9.36;27.32;100007.72;7619273;32;40167;-82
2023/04/05 10:49:52;;;;;;;10.82;5.80;;;;;;;9.17;28.36;100004.56;7619514;32;40052;-82
2023/04/05 10:54:11;;;;;;;9.65;5.20;;;;;;;9.01;27.94;100004.41;7619430;32;38451;-82
2023/04/05 10:58:28;;;;;;;9.02;5.30;;;;;;;8.81;26.29;99998.75;7618911;32;36813;-82
2023/04/05 11:02:44;;;;;;;18.48;5.85;;;;;;;8.77;27.54;100005.78;7632493;32;39277;-82
2023/04/05 11:07:11;;;;;;;10.50;5.28;;;;;;;9.30;28.62;99990.53;7625121;32;240838;-83
2023/04/05 11:11:37;;;;;;;10.13;5.10;;;;;;;9.54;25.78;99987.47;7632237;32;38398;-82
2023/04/05 11:16:08;;;;;;;9.25;4.97;;;;;;;9.06;26.23;99995.47;7632251;32;37147;-82
2023/04/05 11:20:25;;;;;;;9.93;5.30;;;;;;;9.49;26.83;99990.97;7619002;32;39030;-82
2023/04/05 11:24:53;;;;;;;8.70;5.57;;;;;;;9.97;27.18;99980.16;7632304;32;40709;-82
2023/04/05 11:29:10;;;;;;;10.15;5.53;;;;;;;10.57;24.63;99971.75;7619080;32;38597;-82
2023/04/05 11:33:55;;;;;;;12.37;5.10;;;;;;;10.20;24.05;99978.91;7632374;32;37317;-83
2023/04/05 11:38:21;;;;;;;7.85;4.70;;;;;;;10.37;26.74;99967.84;7632086;32;39015;-82
2023/04/05 11:42:38;;;;;;;10.02;5.00;;;;;;;10.57;26.00;99971.75;7632051;32;39905;-82
2023/04/05 11:46:54;;;;;;;8.95;5.07;;;;;;;10.15;24.81;99963.34;7618388;32;37858;-82
2023/04/05 11:51:11;;;;;;;11.52;5.35;;;;;;;11.02;25.20;99956.56;7632001;32;36771;-82
2023/04/05 11:55:29;;;;;;;11.15;5.53;;;;;;;10.88;24.22;99956.28;7631936;32;39389;-83
2023/04/05 11:59:48;;;;;;;9.05;5.32;;;;;;;11.17;23.06;99947.59;7631757;32;39893;-82
2023/04/05 12:04:07;;;;;;;8.25;5.10;;;;;;;11.20;23.65;99947.87;7631671;32;38680;-83
2023/04/05 12:08:36;;;;;;;10.50;5.10;;;;;;;11.10;24.01;99936.94;7631540;32;37849;-83
2023/04/05 12:12:54;;;;;;;9.25;4.97;;;;;;;10.81;23.33;99942.91;7631623;32;39354;-82
2023/04/05 12:17:10;;;;;;;10.13;4.87;;;;;;;10.30;25.03;99940.00;7631763;32;39974;-82
2023/04/05 12:21:27;;;;;;;9.73;5.15;;;;;;;10.95;22.97;99928.75;7631420;32;37585;-82
2023/04/05 12:25:47;;;;;;;8.80;5.12;;;;;;;10.28;24.02;99921.19;7631428;32;37342;-83
2023/04/05 12:30:13;;;;;;;9.55;4.70;;;;;;;10.51;24.19;99925.37;7631337;32;40222;-83
2023/04/05 12:34:29;;;;;;;9.15;4.87;;;;;;;11.03;23.31;99907.19;7631028;32;40011;-82
2023/04/05 12:38:46;;;;;;;9.50;4.53;;;;;;;10.77;22.88;99911.81;7630883;32;37827;-82
2023/04/05 12:43:06;;;;;;;7.93;4.50;;;;;;;10.75;22.89;99911.28;7631078;32;37179;-82
2023/04/05 12:47:22;;;;;;;8.43;4.53;;;;;;;11.86;23.17;99888.00;7630782;32;39353;-82
2023/04/05 12:51:45;;;;;;;7.12;3.85;;;;;;;12.05;21.38;99885.50;7630736;32;39717;-83
2023/04/05 12:56:05;;;;;;;9.82;4.10;;;;;;;12.27;20.11;99885.97;7630603;32;38608;-83
2023/04/05 13:00:26;;;;;;;6.57;3.53;;;;;;;11.70;21.47;99889.97;7632765;32;37081;-83
2023/04/05 13:04:42;;;;;;;5.78;3.42;;;;;;;12.08;20.08;99880.31;7633996;32;40182;-83
2023/04/05 13:08:59;;;;;;;5.43;3.35;;;;;;;11.72;18.70;99882.31;7633680;32;39764;-83
2023/04/05 13:13:16;;;;;;;7.28;3.42;;;;;;;12.10;17.64;99886.31;7633499;32;38805;-83
2023/04/05 13:17:32;;;;;;;5.22;3.30;;;;;;;12.58;19.21;99872.13;7633728;32;37884;-82
2023/04/05 13:21:48;;;;;;;6.45;3.83;;;;;;;12.11;17.46;99874.28;7633713;32;39557;-82
2023/04/05 13:26:05;;;;;;;8.57;3.95;;;;;;;12.76;19.13;99863.25;7633704;32;39729;-83
2023/04/05 13:30:23;;;;;;;6.82;4.00;;;;;;;12.02;18.15;99865.00;7633544;32;36876;-82
2023/04/05 13:34:39;;;;;;;5.95;3.42;;;;;;;12.31;19.64;99873.34;7633551;32;37256;-83
2023/04/05 13:38:58;;;;;;;7.50;3.95;;;;;;;13.06;17.91;99861.38;7633529;32;38501;-83
2023/04/05 13:43:14;;;;;;;7.05;3.80;;;;;;;12.60;17.67;99864.44;7633366;32;40826;-82
2023/04/05 13:47:30;;;;;;;6.50;3.50;;;;;;;12.70;16.80;99863.56;7619914;32;37965;-83
2023/04/05 13:51:49;;;;;;;10.90;3.70;;;;;;;12.71;17.96;99856.97;7633413;32;36004;-82
2023/04/05 13:56:05;;;;;;;5.95;3.22;;;;;;;11.84;19.45;99856.31;7633233;32;39844;-83
2023/04/05 14:00:22;;;;;;;4.00;3.12;;;;;;;11.97;17.28;99854.09;7633316;32;40813;-82
2023/04/05 14:04:43;;;;;;;5.93;3.33;;;;;;;12.35;18.13;99852.56;7633195;32;38125;-82
2023/04/05 14:08:59;;;;;;;5.07;2.92;;;;;;;11.59;17.65;99846.31;7632439;32;37146;-82
2023/04/05 14:13:16;;;;;;;6.70;3.15;;;;;;;12.15;17.81;99850.75;7632522;32;39492;-82
2023/04/05 14:17:32;;;;;;;8.38;3.70;;;;;;;12.01;18.98;99847.81;7619499;32;40794;-82
2023/04/05 14:21:49;;;;;;;7.50;3.10;;;;;;;12.25;17.81;99841.69;7632985;32;37582;-82
2023/04/05 14:26:06;;;;;;;5.22;3.10;;;;;;;11.50;18.75;99844.41;7632925;32;37110;-82
2023/04/05 14:30:22;;;;;;;5.97;3.28;;;;;;;11.85;18.72;99840.75;7632949;32;40035;-82
2023/04/05 14:34:40;;;;;;;7.47;3.22;;;;;;;11.94;18.54;99847.31;7632820;32;38956;-82
2023/04/05 14:38:56;;;;;;;6.62;3.20;;;;;;;12.38;17.51;99835.63;7632608;32;38708;-83
2023/04/05 14:43:13;;;;;;;9.93;3.75;;;;;;;11.23;18.59;99837.38;7632774;32;37010;-82
2023/04/05 14:47:31;;;;;;;6.03;3.03;;;;;;;11.60;18.77;99839.72;7632830;32;38322;-82
2023/04/05 14:51:47;;;;;;;5.10;3.30;;;;;;;11.54;19.16;99838.12;7632620;32;40939;-82
2023/04/05 14:56:04;;;;;;;5.87;3.25;;;;;;;11.78;17.87;99837.47;7632626;32;37974;-82
2023/04/05 15:00:20;;;;;;;6.57;3.12;;;;;;;12.63;18.49;99831.06;7632494;32;38129;-82
2023/04/05 15:04:40;;;;;;;6.35;2.92;;;;;;;12.22;17.89;99817.66;7632705;32;39335;-83
2023/04/05 15:08:56;;;;;;;8.05;3.37;;;;;;;12.81;17.73;99820.53;7619038;32;40073;-83
2023/04/05 15:13:14;;;;;;;4.00;2.83;;;;;;;13.05;17.56;99826.88;7632470;32;38178;-82
2023/04/05 15:17:32;;;;;;;7.70;3.35;;;;;;;13.61;16.72;99811.06;7619518;32;36302;-82
2023/04/05 15:21:49;;;;;;;9.82;2.92;;;;;;;13.96;17.04;99817.22;7632047;32;39140;-83
2023/04/05 15:26:06;;;;;;;6.93;2.75;;;;;;;14.42;17.75;99828.34;7618983;32;39969;-82
2023/04/05 15:30:22;;;;;;;8.52;3.12;;;;;;;14.43;17.00;99821.75;7632271;32;37854;-82
2023/04/05 15:34:39;;;;;;;5.93;2.87;;;;;;;14.36;16.60;99824.03;7632391;32;37933;-83
2023/04/05 15:38:56;;;;;;;7.22;3.15;;;;;;;14.23;16.57;99814.66;7632045;32;39261;-83
2023/04/05 15:43:12;;;;;;;6.37;3.15;;;;;;;14.05;16.77;99826.41;7632143;32;39999;-83
2023/04/05 15:47:28;;;;;;;5.40;2.90;;;;;;;14.08;15.98;99823.88;7631962;32;37962;-82
2023/04/05 15:51:46;;;;;;;7.12;3.05;;;;;;;13.50;16.60;99830.34;7632435;32;36309;-82
2023/04/05 15:56:03;;;;;;;9.45;3.37;;;;;;;12.61;17.27;99838.75;7632048;32;39862;-83
2023/04/05 16:00:22;;;;;;;5.05;2.95;;;;;;;12.34;18.78;99842.72;7631850;32;39108;-83
2023/04/05 16:04:38;;;;;;;6.43;3.22;;;;;;;11.79;18.54;99844.59;7631757;32;38077;-82
2023/04/05 16:08:54;;;;;;;7.37;2.85;;;;;;;11.99;18.45;99844.53;7631559;32;37154;-83
2023/04/05 16:13:11;;;;;;;4.47;2.42;;;;;;;12.24;17.44;99844.72;7631839;32;39873;-82
2023/04/05 16:17:27;;;;;;;3.55;2.60;;;;;;;12.54;17.04;99838.25;7631365;32;39832;-83
2023/04/05 16:21:43;;;;;;;6.18;2.70;;;;;;;11.83;17.72;99845.66;7631395;32;38715;-82
2023/04/05 16:26:00;;;;;;;4.78;2.78;;;;;;;11.95;18.18;99854.41;7631517;32;37441;-82
2023/04/05 16:30:18;;;;;;;6.15;2.75;;;;;;;11.91;18.74;99853.31;7631470;32;38440;-82
2023/04/05 16:34:35;;;;;;;5.12;2.60;;;;;;;11.53;19.05;99854.78;7630199;32;40882;-83
2023/04/05 16:38:51;;;;;;;5.25;2.80;;;;;;;12.29;18.80;99853.69;7631063;32;37763;-82
2023/04/05 16:43:07;;;;;;;7.87;2.72;;;;;;;11.92;19.28;99849.50;7631067;32;37906;-82
2023/04/05 16:47:23;;;;;;;4.30;2.58;;;;;;;11.43;19.72;99850.16;7630995;32;40142;-82
2023/04/05 16:51:40;;;;;;;5.85;2.78;;;;;;;11.18;19.65;99851.00;7630801;32;39947;-82
2023/04/05 16:55:56;;;;;;;5.40;3.00;;;;;;;11.22;19.82;99852.91;7617262;32;37925;-82
2023/04/05 17:00:13;;;;;;;7.95;3.50;;;;;;;10.42;21.48;99856.13;7630341;32;36805;-82
2023/04/05 17:04:30;;;;;;;6.70;3.28;;;;;;;10.48;20.53;99855.03;7630382;32;40398;-82
2023/04/05 17:08:46;;;;;;;7.60;3.37;;;;;;;10.80;20.95;99855.94;7630141;32;40967;-82
2023/04/05 17:13:03;;;;;;;6.03;3.00;;;;;;;10.65;22.19;99859.44;7629872;32;38463;-82
2023/04/05 17:17:19;;;;;;;6.10;3.55;;;;;;;10.61;22.28;99858.34;7629863;32;37573;-82
2023/04/05 17:21:35;;;;;;;9.32;3.70;;;;;;;10.42;22.56;99860.78;7630163;32;39615;-82
2023/04/05 17:25:54;;;;;;;8.35;3.60;;;;;;;9.88;23.30;99861.91;7630283;32;38891;-82
2023/04/05 17:30:10;;;;;;;8.13;3.78;;;;;;;9.73;24.30;99862.66;7629905;32;38656;-82
2023/04/05 17:34:27;;;;;;;11.25;4.97;;;;;;;9.81;24.88;99866.78;7629917;32;36786;-82
2023/04/05 17:38:45;;;;;;;13.50;5.28;;;;;;;9.98;24.70;99863.84;7629793;32;39044;-82
2023/04/05 17:43:01;;;;;;;12.70;6.53;;;;;;;10.09;24.20;99863.63;7629549;32;40649;-82
2023/04/05 17:47:17;;;;;;;25.20;11.20;;;;;;;10.10;23.97;99859.00;7632690;32;38751;-82
2023/04/05 17:51:34;;;;;;;19.98;9.55;;;;;;;9.99;24.96;99863.59;7633344;32;37428;-82
2023/04/05 17:55:50;;;;;;;33.70;18.58;;;;;;;9.97;25.68;99863.03;7633297;32;39360;-82
2023/04/05 18:00:07;;;;;;;34.85;21.08;;;;;;;9.84;25.22;99866.25;7632163;32;40900;-81
2023/04/05 18:04:24;;;;;;;16.85;7.95;;;;;;;9.81;25.00;99872.22;7633053;32;38663;-81
2023/04/05 18:08:41;;;;;;;23.90;11.20;;;;;;;9.61;25.66;99881.91;7633115;32;37728;-82
2023/04/05 18:12:57;;;;;;;15.57;6.47;;;;;;;9.47;25.63;99880.72;7632693;32;39075;-83
2023/04/05 18:17:13;;;;;;;14.05;6.03;;;;;;;9.40;25.71;99878.25;7639573;32;40890;-83
2023/04/05 18:21:30;;;;;;;11.18;5.62;;;;;;;9.33;25.81;99883.91;7634369;32;38623;-82
2023/04/05 18:25:47;;;;;;;13.30;5.22;;;;;;;9.20;26.49;99890.59;7632850;32;38021;-83
2023/04/05 18:30:04;;;;;;;9.50;4.75;;;;;;;8.75;26.81;99893.75;7656994;32;39069;-83
2023/04/05 18:34:20;;;;;;;11.25;5.45;;;;;;;8.78;26.06;99904.13;7658913;32;40804;-83
2023/04/05 18:38:36;;;;;;;14.13;5.60;;;;;;;8.71;26.77;99904.34;7642907;32;38638;-82
2023/04/05 18:42:53;;;;;;;14.07;6.55;;;;;;;8.57;26.62;99898.47;7632608;32;37098;-82
2023/04/05 18:47:09;;;;;;;15.95;6.37;;;;;;;8.52;26.23;99901.16;7640036;32;39894;-83
2023/04/05 18:51:26;;;;;;;18.35;6.95;;;;;;;8.35;25.92;99900.38;7632507;32;40096;-82
2023/04/05 18:55:42;;;;;;;15.75;6.43;;;;;;;8.03;25.70;99906.50;7631727;32;37781;-80
2023/04/05 18:59:58;;;;;;;15.55;6.80;;;;;;;8.13;25.62;99913.97;7658859;32;37186;-81
2023/04/05 19:04:15;;;;;;;16.25;7.82;;;;;;;8.30;25.32;99920.16;7644079;32;40141;-80
2023/04/05 19:08:31;;;;;;;17.02;7.70;;;;;;;8.19;25.88;99913.78;7649484;32;40580;-82
2023/04/05 19:12:48;;;;;;;13.70;6.93;;;;;;;7.65;26.53;99921.72;7658388;32;37771;-81
2023/04/05 19:17:04;;;;;;;17.80;7.53;;;;;;;7.81;26.90;99918.19;7649877;32;38108;-83
2023/04/05 19:21:23;;;;;;;12.82;6.45;;;;;;;7.82;27.03;99917.09;7632206;32;40032;-82
2023/04/05 19:25:39;;;;;;;17.67;6.68;;;;;;;7.81;27.58;99922.75;7632136;32;40866;-81
2023/04/05 19:29:56;;;;;;;15.05;6.55;;;;;;;7.41;27.46;99930.06;7632163;32;37138;-85
2023/04/05 19:34:12;;;;;;;17.50;6.70;;;;;;;7.79;26.98;99922.19;7630595;32;37797;-82
2023/04/05 19:38:29;;;;;;;11.85;6.28;;;;;;;7.31;28.04;99935.31;7637841;32;39327;-82
2023/04/05 19:42:46;;;;;;;18.77;8.10;;;;;;;7.37;28.16;99942.47;7628740;32;40595;-81
2023/04/05 19:47:11;;;;;;;16.92;8.30;;;;;;;7.12;28.55;99943.72;7620960;32;38325;-81
2023/04/05 19:51:27;;;;;;;14.80;7.20;;;;;;;7.08;28.36;99936.28;7630512;32;37703;-80
2023/04/05 19:55:44;;;;;;;11.93;6.25;;;;;;;7.05;28.94;99943.00;7630604;32;40998;-81
2023/04/05 20:00:00;;;;;;;28.58;12.30;;;;;;;6.91;29.64;99947.94;7655861;32;40236;-80
2023/04/05 20:04:18;;;;;;;27.77;12.40;;;;;;;7.04;30.32;99946.81;7654995;32;37887;-81